sensor_id;sensor_type;location;lat;lon;timestamp;pressure;altitude;pressure_sealevel;temperature;humidity
64336;BME280;50672;53.362;-6.240;2023-02-11T00:02:53;103588.31;;;9.18;83.39
64336;BME280;50672;53.362;-6.240;2023-02-11T00:05:20;103598.22;;;9.19;83.42
64336;BME280;50672;53.362;-6.240;2023-02-11T00:07:47;103593.75;;;9.18;83.58
64336;BME280;50672;53.362;-6.240;2023-02-11T00:10:13;103583.84;;;9.17;83.30
64336;BME280;50672;53.362;-6.240;2023-02-11T00:12:40;103589.38;;;9.16;83.58
64336;BME280;50672;53.362;-6.240;2023-02-11T00:15:09;103592.22;;;9.14;83.65
64336;BME280;50672;53.362;-6.240;2023-02-11T00:17:35;103581.44;;;9.13;83.71
64336;BME280;50672;53.362;-6.240;2023-02-11T00:20:02;103576.09;;;9.11;83.83
64336;BME280;50672;53.362;-6.240;2023-02-11T00:22:33;103571.63;;;9.10;83.84
64336;BME280;50672;53.362;-6.240;2023-02-11T00:25:00;103574.34;;;9.10;83.87
64336;BME280;50672;53.362;-6.240;2023-02-11T00:27:29;103570.66;;;9.11;84.03
64336;BME280;50672;53.362;-6.240;2023-02-11T00:29:56;103567.94;;;9.11;84.19
64336;BME280;50672;53.362;-6.240;2023-02-11T00:32:23;103557.16;;;9.10;84.37
64336;BME280;50672;53.362;-6.240;2023-02-11T00:34:51;103551.72;;;9.10;84.51
64336;BME280;50672;53.362;-6.240;2023-02-11T00:37:18;103557.16;;;9.10;84.28
64336;BME280;50672;53.362;-6.240;2023-02-11T00:39:45;103548.13;;;9.09;84.49
64336;BME280;50672;53.362;-6.240;2023-02-11T00:42:13;103559.97;;;9.08;84.72
64336;BME280;50672;53.362;-6.240;2023-02-11T00:44:40;103562.69;;;9.08;84.57
64336;BME280;50672;53.362;-6.240;2023-02-11T00:47:07;103561.81;;;9.07;84.52
64336;BME280;50672;53.362;-6.240;2023-02-11T00:49:34;103571.81;;;9.07;84.70
64336;BME280;50672;53.362;-6.240;2023-02-11T00:52:02;103571.81;;;9.07;84.86
64336;BME280;50672;53.362;-6.240;2023-02-11T00:54:29;103572.69;;;9.07;84.88
64336;BME280;50672;53.362;-6.240;2023-02-11T00:56:56;103572.69;;;9.07;85.13
64336;BME280;50672;53.362;-6.240;2023-02-11T00:59:22;103577.16;;;9.09;85.07
64336;BME280;50672;53.362;-6.240;2023-02-11T01:01:49;103577.25;;;9.07;84.93
64336;BME280;50672;53.362;-6.240;2023-02-11T01:04:16;103579.97;;;9.07;84.88
64336;BME280;50672;53.362;-6.240;2023-02-11T01:06:43;103578.97;;;9.08;84.99
64336;BME280;50672;53.362;-6.240;2023-02-11T01:09:10;103581.69;;;9.08;85.24
64336;BME280;50672;53.362;-6.240;2023-02-11T01:11:37;103579.88;;;9.09;85.10
64336;BME280;50672;53.362;-6.240;2023-02-11T01:14:03;103578.03;;;9.09;84.78
64336;BME280;50672;53.362;-6.240;2023-02-11T01:16:30;103574.34;;;9.10;84.94
64336;BME280;50672;53.362;-6.240;2023-02-11T01:18:57;103573.38;;;9.11;85.28
64336;BME280;50672;53.362;-6.240;2023-02-11T01:21:24;103573.38;;;9.11;85.03
64336;BME280;50672;53.362;-6.240;2023-02-11T01:23:51;103574.34;;;9.10;84.73
64336;BME280;50672;53.362;-6.240;2023-02-11T01:26:18;103572.50;;;9.11;84.73
64336;BME280;50672;53.362;-6.240;2023-02-11T01:28:45;103577.81;;;9.12;84.80
64336;BME280;50672;53.362;-6.240;2023-02-11T01:31:13;103574.16;;;9.13;85.07
64336;BME280;50672;53.362;-6.240;2023-02-11T01:33:39;103570.47;;;9.14;84.94
64336;BME280;50672;53.362;-6.240;2023-02-11T01:36:07;103570.47;;;9.14;84.64
64336;BME280;50672;53.362;-6.240;2023-02-11T01:38:34;103562.50;;;9.11;84.55
64336;BME280;50672;53.362;-6.240;2023-02-11T01:41:05;103552.00;;;9.05;84.78
64336;BME280;50672;53.362;-6.240;2023-02-11T01:43:42;103545.97;;;9.00;84.54
64336;BME280;50672;53.362;-6.240;2023-02-11T01:49:15;103539.69;;;8.85;84.93
64336;BME280;50672;53.362;-6.240;2023-02-11T01:51:57;103542.00;;;8.77;84.96
64336;BME280;50672;53.362;-6.240;2023-02-11T01:54:30;103537.63;;;8.74;84.93
64336;BME280;50672;53.362;-6.240;2023-02-11T01:57:19;103539.53;;;8.72;85.01
64336;BME280;50672;53.362;-6.240;2023-02-11T02:02:27;103533.25;;;8.71;85.00
64336;BME280;50672;53.362;-6.240;2023-02-11T02:05:07;103535.88;;;8.73;85.08
64336;BME280;50672;53.362;-6.240;2023-02-11T02:07:43;103533.06;;;8.75;85.19
64336;BME280;50672;53.362;-6.240;2023-02-11T02:10:16;103531.25;;;8.75;85.48
64336;BME280;50672;53.362;-6.240;2023-02-11T02:12:45;103537.63;;;8.74;85.13
64336;BME280;50672;53.362;-6.240;2023-02-11T02:17:53;103525.81;;;8.75;85.40
64336;BME280;50672;53.362;-6.240;2023-02-11T02:29:04;103522.50;;;8.70;85.23
64336;BME280;50672;53.362;-6.240;2023-02-11T02:34:43;103531.50;;;8.70;85.22
64336;BME280;50672;53.362;-6.240;2023-02-11T02:37:33;103539.75;;;8.69;85.23
64336;BME280;50672;53.362;-6.240;2023-02-11T02:40:08;103541.00;;;8.63;85.34
64336;BME280;50672;53.362;-6.240;2023-02-11T02:42:35;103542.25;;;8.58;85.22
64336;BME280;50672;53.362;-6.240;2023-02-11T02:45:06;103536.16;;;8.54;85.39
64336;BME280;50672;53.362;-6.240;2023-02-11T02:47:34;103533.44;;;8.54;85.44
64336;BME280;50672;53.362;-6.240;2023-02-11T02:50:02;103536.06;;;8.55;85.49
64336;BME280;50672;53.362;-6.240;2023-02-11T03:01:37;103512.59;;;8.69;85.18
64336;BME280;50672;53.362;-6.240;2023-02-11T03:06:42;103513.28;;;8.72;85.41
64336;BME280;50672;53.362;-6.240;2023-02-11T03:09:19;103502.31;;;8.74;85.25
64336;BME280;50672;53.362;-6.240;2023-02-11T03:11:49;103498.66;;;8.75;85.21
64336;BME280;50672;53.362;-6.240;2023-02-11T03:14:17;103500.38;;;8.76;85.38
64336;BME280;50672;53.362;-6.240;2023-02-11T03:16:45;103506.59;;;8.78;85.02
64336;BME280;50672;53.362;-6.240;2023-02-11T03:19:20;103502.13;;;8.77;84.98
64336;BME280;50672;53.362;-6.240;2023-02-11T03:21:48;103507.47;;;8.79;84.96
64336;BME280;50672;53.362;-6.240;2023-02-11T03:24:37;103497.50;;;8.79;85.02
64336;BME280;50672;53.362;-6.240;2023-02-11T03:27:25;103492.91;;;8.80;84.97
64336;BME280;50672;53.362;-6.240;2023-02-11T03:30:13;103493.97;;;8.77;85.25
64336;BME280;50672;53.362;-6.240;2023-02-11T03:33:06;103497.00;;;8.72;84.91
64336;BME280;50672;53.362;-6.240;2023-02-11T03:35:40;103493.59;;;8.69;85.09
64336;BME280;50672;53.362;-6.240;2023-02-11T03:38:16;103487.38;;;8.67;85.58
64336;BME280;50672;53.362;-6.240;2023-02-11T03:40:43;103492.81;;;8.67;85.33
64336;BME280;50672;53.362;-6.240;2023-02-11T03:43:17;103479.25;;;8.67;85.25
64336;BME280;50672;53.362;-6.240;2023-02-11T03:45:47;103485.53;;;8.67;85.03
64336;BME280;50672;53.362;-6.240;2023-02-11T03:48:20;103485.44;;;8.69;85.18
64336;BME280;50672;53.362;-6.240;2023-02-11T03:50:50;103493.47;;;8.70;85.20
64336;BME280;50672;53.362;-6.240;2023-02-11T03:53:19;103489.91;;;8.70;84.96
64336;BME280;50672;53.362;-6.240;2023-02-11T03:55:49;103499.00;;;8.69;85.09
64336;BME280;50672;53.362;-6.240;2023-02-11T03:58:17;103491.75;;;8.69;85.13
64336;BME280;50672;53.362;-6.240;2023-02-11T04:00:44;103491.84;;;8.68;84.99
64336;BME280;50672;53.362;-6.240;2023-02-11T04:03:12;103500.75;;;8.70;84.91
64336;BME280;50672;53.362;-6.240;2023-02-11T04:05:39;103501.72;;;8.69;84.83
64336;BME280;50672;53.362;-6.240;2023-02-11T04:08:06;103503.69;;;8.67;84.83
64336;BME280;50672;53.362;-6.240;2023-02-11T04:10:33;103506.50;;;8.65;84.78
64336;BME280;50672;53.362;-6.240;2023-02-11T04:13:00;103511.03;;;8.65;84.83
64336;BME280;50672;53.362;-6.240;2023-02-11T04:15:31;103513.66;;;8.66;84.89
64336;BME280;50672;53.362;-6.240;2023-02-11T04:17:57;103512.78;;;8.66;84.94
64336;BME280;50672;53.362;-6.240;2023-02-11T04:20:24;103510.28;;;8.63;84.85
64336;BME280;50672;53.362;-6.240;2023-02-11T04:22:51;103509.47;;;8.61;84.84
64336;BME280;50672;53.362;-6.240;2023-02-11T04:25:18;103509.38;;;8.62;84.97
64336;BME280;50672;53.362;-6.240;2023-02-11T04:27:45;103513.09;;;8.61;84.88
64336;BME280;50672;53.362;-6.240;2023-02-11T04:30:12;103514.91;;;8.61;84.98
64336;BME280;50672;53.362;-6.240;2023-02-11T04:32:39;103512.09;;;8.62;84.83
64336;BME280;50672;53.362;-6.240;2023-02-11T04:35:06;103516.56;;;8.63;84.94
64336;BME280;50672;53.362;-6.240;2023-02-11T04:37:32;103516.47;;;8.65;85.17
64336;BME280;50672;53.362;-6.240;2023-02-11T04:39:59;103513.66;;;8.66;84.93
64336;BME280;50672;53.362;-6.240;2023-02-11T04:42:26;103515.41;;;8.67;85.16
64336;BME280;50672;53.362;-6.240;2023-02-11T04:44:53;103508.22;;;8.66;85.23
64336;BME280;50672;53.362;-6.240;2023-02-11T04:47:20;103512.69;;;8.67;85.05
64336;BME280;50672;53.362;-6.240;2023-02-11T04:49:47;103510.94;;;8.66;85.14
64336;BME280;50672;53.362;-6.240;2023-02-11T04:52:13;103512.69;;;8.67;85.20
64336;BME280;50672;53.362;-6.240;2023-02-11T04:54:40;103521.72;;;8.68;85.26
64336;BME280;50672;53.362;-6.240;2023-02-11T04:57:07;103518.03;;;8.69;85.14
64336;BME280;50672;53.362;-6.240;2023-02-11T04:59:34;103526.25;;;8.67;85.03
64336;BME280;50672;53.362;-6.240;2023-02-11T05:02:00;103524.44;;;8.68;85.10
64336;BME280;50672;53.362;-6.240;2023-02-11T05:04:27;103518.03;;;8.69;85.04
64336;BME280;50672;53.362;-6.240;2023-02-11T05:06:54;103525.22;;;8.70;84.78
64336;BME280;50672;53.362;-6.240;2023-02-11T05:09:24;103525.22;;;8.70;84.89
64336;BME280;50672;53.362;-6.240;2023-02-11T05:11:50;103527.81;;;8.71;84.85
64336;BME280;50672;53.362;-6.240;2023-02-11T05:14:17;103526.88;;;8.72;85.07
64336;BME280;50672;53.362;-6.240;2023-02-11T05:16:44;103522.28;;;8.73;85.07
64336;BME280;50672;53.362;-6.240;2023-02-11T05:19:11;103526.75;;;8.74;85.08
64336;BME280;50672;53.362;-6.240;2023-02-11T05:21:38;103526.75;;;8.74;84.94
64336;BME280;50672;53.362;-6.240;2023-02-11T05:24:10;103523.19;;;8.74;84.82
64336;BME280;50672;53.362;-6.240;2023-02-11T05:26:37;103519.59;;;8.73;84.65
64336;BME280;50672;53.362;-6.240;2023-02-11T05:29:04;103522.28;;;8.73;84.49
64336;BME280;50672;53.362;-6.240;2023-02-11T05:31:31;103525.91;;;8.74;84.74
64336;BME280;50672;53.362;-6.240;2023-02-11T05:33:58;103523.09;;;8.75;84.41
64336;BME280;50672;53.362;-6.240;2023-02-11T05:36:25;103527.63;;;8.75;84.30
64336;BME280;50672;53.362;-6.240;2023-02-11T05:38:52;103527.63;;;8.75;84.31
64336;BME280;50672;53.362;-6.240;2023-02-11T05:41:19;103532.19;;;8.74;84.19
64336;BME280;50672;53.362;-6.240;2023-02-11T05:43:49;103533.06;;;8.75;84.36
64336;BME280;50672;53.362;-6.240;2023-02-11T05:46:16;103531.25;;;8.75;84.14
64336;BME280;50672;53.362;-6.240;2023-02-11T05:48:43;103528.53;;;8.75;84.06
64336;BME280;50672;53.362;-6.240;2023-02-11T05:51:10;103529.38;;;8.76;84.23
64336;BME280;50672;53.362;-6.240;2023-02-11T05:53:37;103524.81;;;8.76;83.98
64336;BME280;50672;53.362;-6.240;2023-02-11T05:56:04;103526.56;;;8.77;84.20
64336;BME280;50672;53.362;-6.240;2023-02-11T05:58:31;103530.09;;;8.79;83.91
64336;BME280;50672;53.362;-6.240;2023-02-11T06:00:58;103531.81;;;8.80;84.00
64336;BME280;50672;53.362;-6.240;2023-02-11T06:03:25;103531.81;;;8.80;83.79
64336;BME280;50672;53.362;-6.240;2023-02-11T06:05:52;103534.53;;;8.80;84.06
64336;BME280;50672;53.362;-6.240;2023-02-11T06:08:18;103536.28;;;8.81;83.58
64336;BME280;50672;53.362;-6.240;2023-02-11T06:10:45;103539.00;;;8.81;83.45
64336;BME280;50672;53.362;-6.240;2023-02-11T06:13:12;103534.41;;;8.82;83.43
64336;BME280;50672;53.362;-6.240;2023-02-11T06:15:39;103537.06;;;8.83;83.36
64336;BME280;50672;53.362;-6.240;2023-02-11T06:18:06;103530.66;;;8.84;83.37
64336;BME280;50672;53.362;-6.240;2023-02-11T06:20:33;103532.50;;;8.84;83.68
64336;BME280;50672;53.362;-6.240;2023-02-11T06:23:00;103527.81;;;8.86;83.35
64336;BME280;50672;53.362;-6.240;2023-02-11T06:25:27;103520.56;;;8.86;83.17
64336;BME280;50672;53.362;-6.240;2023-02-11T06:27:53;103524.16;;;8.87;83.13
64336;BME280;50672;53.362;-6.240;2023-02-11T06:30:20;103517.75;;;8.88;83.03
64336;BME280;50672;53.362;-6.240;2023-02-11T06:32:47;103529.47;;;8.88;82.88
64336;BME280;50672;53.362;-6.240;2023-02-11T06:35:14;103535.81;;;8.89;82.55
64336;BME280;50672;53.362;-6.240;2023-02-11T06:37:41;103539.28;;;8.91;82.68
64336;BME280;50672;53.362;-6.240;2023-02-11T06:40:09;103533.84;;;8.91;82.63
64336;BME280;50672;53.362;-6.240;2023-02-11T06:42:37;103527.56;;;8.91;82.67
64336;BME280;50672;53.362;-6.240;2023-02-11T06:45:05;103520.28;;;8.91;82.31
64336;BME280;50672;53.362;-6.240;2023-02-11T06:47:34;103522.91;;;8.93;82.47
64336;BME280;50672;53.362;-6.240;2023-02-11T06:50:01;103519.31;;;8.92;82.00
64336;BME280;50672;53.362;-6.240;2023-02-11T06:52:28;103536.47;;;8.93;82.16
64336;BME280;50672;53.362;-6.240;2023-02-11T06:54:55;103533.00;;;8.91;82.25
64336;BME280;50672;53.362;-6.240;2023-02-11T06:57:22;103533.97;;;8.89;82.26
64336;BME280;50672;53.362;-6.240;2023-02-11T06:59:48;103532.19;;;8.88;82.16
64336;BME280;50672;53.362;-6.240;2023-02-11T07:02:16;103529.47;;;8.88;81.85
64336;BME280;50672;53.362;-6.240;2023-02-11T07:04:46;103533.09;;;8.89;82.08
64336;BME280;50672;53.362;-6.240;2023-02-11T07:07:13;103530.28;;;8.91;81.82
64336;BME280;50672;53.362;-6.240;2023-02-11T07:09:40;103533.00;;;8.91;81.73
64336;BME280;50672;53.362;-6.240;2023-02-11T07:12:08;103539.19;;;8.93;81.67
64336;BME280;50672;53.362;-6.240;2023-02-11T07:14:36;103540.94;;;8.94;81.49
64336;BME280;50672;53.362;-6.240;2023-02-11T07:17:03;103539.09;;;8.94;81.56
64336;BME280;50672;53.362;-6.240;2023-02-11T07:19:30;103537.28;;;8.95;81.24
64336;BME280;50672;53.362;-6.240;2023-02-11T07:21:57;103533.56;;;8.96;81.05
64336;BME280;50672;53.362;-6.240;2023-02-11T07:24:24;103538.94;;;8.97;81.03
64336;BME280;50672;53.362;-6.240;2023-02-11T07:26:52;103539.69;;;8.99;80.91
64336;BME280;50672;53.362;-6.240;2023-02-11T07:29:21;103541.53;;;8.99;81.01
64336;BME280;50672;53.362;-6.240;2023-02-11T07:31:47;103549.59;;;9.00;80.44
64336;BME280;50672;53.362;-6.240;2023-02-11T07:34:14;103548.69;;;9.00;80.33
64336;BME280;50672;53.362;-6.240;2023-02-11T07:36:41;103553.28;;;8.99;79.95
64336;BME280;50672;53.362;-6.240;2023-02-11T07:39:11;103553.28;;;8.99;79.98
64336;BME280;50672;53.362;-6.240;2023-02-11T07:41:39;103548.69;;;9.00;79.78
64336;BME280;50672;53.362;-6.240;2023-02-11T07:44:06;103555.13;;;8.99;79.93
64336;BME280;50672;53.362;-6.240;2023-02-11T07:46:33;103557.84;;;8.99;79.34
64336;BME280;50672;53.362;-6.240;2023-02-11T07:49:01;103559.56;;;9.00;79.16
64336;BME280;50672;53.362;-6.240;2023-02-11T07:51:29;103563.19;;;9.00;79.07
64336;BME280;50672;53.362;-6.240;2023-02-11T07:53:58;103556.75;;;9.01;79.18
64336;BME280;50672;53.362;-6.240;2023-02-11T07:56:26;103559.47;;;9.01;78.95
64336;BME280;50672;53.362;-6.240;2023-02-11T07:58:54;103562.97;;;9.03;78.46
64336;BME280;50672;53.362;-6.240;2023-02-11T08:01:23;103560.25;;;9.03;78.77
64336;BME280;50672;53.362;-6.240;2023-02-11T08:03:56;103572.88;;;9.04;78.45
64336;BME280;50672;53.362;-6.240;2023-02-11T08:06:25;103571.13;;;9.03;78.02
64336;BME280;50672;53.362;-6.240;2023-02-11T08:08:53;103562.88;;;9.05;78.04
64336;BME280;50672;53.362;-6.240;2023-02-11T08:11:24;103560.06;;;9.06;77.81
64336;BME280;50672;53.362;-6.240;2023-02-11T08:13:53;103566.41;;;9.07;77.56
64336;BME280;50672;53.362;-6.240;2023-02-11T08:18:52;103565.28;;;9.10;77.17
64336;BME280;50672;53.362;-6.240;2023-02-11T08:21:20;103563.47;;;9.10;76.71
64336;BME280;50672;53.362;-6.240;2023-02-11T08:23:48;103573.28;;;9.13;76.56
64336;BME280;50672;53.362;-6.240;2023-02-11T08:26:17;103572.19;;;9.15;76.42
64336;BME280;50672;53.362;-6.240;2023-02-11T08:29:06;103563.19;;;9.15;76.06
64336;BME280;50672;53.362;-6.240;2023-02-11T08:36:13;103576.28;;;9.22;75.20
64336;BME280;50672;53.362;-6.240;2023-02-11T08:38:41;103582.59;;;9.23;75.08
64336;BME280;50672;53.362;-6.240;2023-02-11T08:41:08;103584.34;;;9.24;74.95
64336;BME280;50672;53.362;-6.240;2023-02-11T08:43:35;103592.31;;;9.27;74.71
64336;BME280;50672;53.362;-6.240;2023-02-11T08:46:02;103592.19;;;9.29;74.52
64336;BME280;50672;53.362;-6.240;2023-02-11T08:48:31;103590.28;;;9.31;74.33
64336;BME280;50672;53.362;-6.240;2023-02-11T08:50:58;103594.63;;;9.33;74.42
64336;BME280;50672;53.362;-6.240;2023-02-11T08:53:25;103585.41;;;9.36;74.28
64336;BME280;50672;53.362;-6.240;2023-02-11T08:55:53;103602.41;;;9.39;74.17
64336;BME280;50672;53.362;-6.240;2023-02-11T08:58:21;103600.44;;;9.41;73.84
64336;BME280;50672;53.362;-6.240;2023-02-11T09:00:48;103604.81;;;9.44;73.90
64336;BME280;50672;53.362;-6.240;2023-02-11T09:03:16;103611.06;;;9.46;73.46
64336;BME280;50672;53.362;-6.240;2023-02-11T09:05:44;103616.38;;;9.48;73.36
64336;BME280;50672;53.362;-6.240;2023-02-11T09:08:12;103613.56;;;9.49;73.32
64336;BME280;50672;53.362;-6.240;2023-02-11T09:10:39;103606.28;;;9.50;73.19
64336;BME280;50672;53.362;-6.240;2023-02-11T09:13:06;103616.19;;;9.51;72.85
64336;BME280;50672;53.362;-6.240;2023-02-11T09:15:34;103616.09;;;9.52;72.92
64336;BME280;50672;53.362;-6.240;2023-02-11T09:18:01;103620.34;;;9.56;72.43
64336;BME280;50672;53.362;-6.240;2023-02-11T09:20:31;103627.44;;;9.59;72.43
64336;BME280;50672;53.362;-6.240;2023-02-11T09:22:58;103629.88;;;9.64;72.24
64336;BME280;50672;53.362;-6.240;2023-02-11T09:25:25;103635.09;;;9.67;72.23
64336;BME280;50672;53.362;-6.240;2023-02-11T09:27:52;103636.66;;;9.71;72.07
64336;BME280;50672;53.362;-6.240;2023-02-11T09:30:20;103633.75;;;9.74;71.93
64336;BME280;50672;53.362;-6.240;2023-02-11T09:32:47;103630.72;;;9.79;72.09
64336;BME280;50672;53.362;-6.240;2023-02-11T09:35:13;103632.28;;;9.83;71.63
64336;BME280;50672;53.362;-6.240;2023-02-11T09:37:40;103628.50;;;9.85;71.48
64336;BME280;50672;53.362;-6.240;2023-02-11T09:40:08;103634.69;;;9.87;71.66
64336;BME280;50672;53.362;-6.240;2023-02-11T09:42:52;103638.22;;;9.89;71.30
64336;BME280;50672;53.362;-6.240;2023-02-11T09:45:29;103638.97;;;9.91;71.45
64336;BME280;50672;53.362;-6.240;2023-02-11T09:48:00;103639.75;;;9.94;70.76
64336;BME280;50672;53.362;-6.240;2023-02-11T09:50:35;103639.44;;;9.98;70.89
64336;BME280;50672;53.362;-6.240;2023-02-11T09:53:11;103650.22;;;10.00;70.70
64336;BME280;50672;53.362;-6.240;2023-02-11T09:55:44;103647.59;;;9.98;70.79
64336;BME280;50672;53.362;-6.240;2023-02-11T09:58:13;103651.28;;;9.97;70.81
64336;BME280;50672;53.362;-6.240;2023-02-11T10:06:24;103658.69;;;9.95;70.63
64336;BME280;50672;53.362;-6.240;2023-02-11T10:11:48;103656.63;;;9.99;70.42
64336;BME280;50672;53.362;-6.240;2023-02-11T10:20:14;103650.19;;;10.14;69.99
64336;BME280;50672;53.362;-6.240;2023-02-11T10:22:47;103651.84;;;10.17;70.11
64336;BME280;50672;53.362;-6.240;2023-02-11T10:25:24;103658.81;;;10.21;69.73
64336;BME280;50672;53.362;-6.240;2023-02-11T10:27:54;103665.91;;;10.23;69.87
64336;BME280;50672;53.362;-6.240;2023-02-11T10:30:28;103661.16;;;10.27;69.76
64336;BME280;50672;53.362;-6.240;2023-02-11T10:33:02;103661.81;;;10.31;69.13
64336;BME280;50672;53.362;-6.240;2023-02-11T10:35:30;103659.09;;;10.31;69.24
64336;BME280;50672;53.362;-6.240;2023-02-11T10:37:58;103666.28;;;10.32;68.97
64336;BME280;50672;53.362;-6.240;2023-02-11T10:40:27;103676.22;;;10.33;68.81
64336;BME280;50672;53.362;-6.240;2023-02-11T10:42:58;103667.97;;;10.34;68.52
64336;BME280;50672;53.362;-6.240;2023-02-11T10:45:35;103670.38;;;10.39;68.28
64336;BME280;50672;53.362;-6.240;2023-02-11T10:48:04;103670.16;;;10.42;68.25
64336;BME280;50672;53.362;-6.240;2023-02-11T10:50:33;103668.13;;;10.46;67.93
64336;BME280;50672;53.362;-6.240;2023-02-11T10:53:15;103670.63;;;10.49;68.14
64336;BME280;50672;53.362;-6.240;2023-02-11T10:55:51;103666.94;;;10.50;67.90
64336;BME280;50672;53.362;-6.240;2023-02-11T10:58:26;103664.88;;;10.53;67.23
64336;BME280;50672;53.362;-6.240;2023-02-11T11:00:56;103672.63;;;10.59;67.09
64336;BME280;50672;53.362;-6.240;2023-02-11T11:03:36;103661.53;;;10.63;67.04
64336;BME280;50672;53.362;-6.240;2023-02-11T11:06:07;103655.88;;;10.66;66.80
64336;BME280;50672;53.362;-6.240;2023-02-11T11:08:43;103658.28;;;10.70;66.53
64336;BME280;50672;53.362;-6.240;2023-02-11T11:11:13;103656.31;;;10.72;66.66
64336;BME280;50672;53.362;-6.240;2023-02-11T11:16:32;103655.88;;;10.78;66.34
64336;BME280;50672;53.362;-6.240;2023-02-11T11:24:16;103668.56;;;10.92;65.45
64336;BME280;50672;53.362;-6.240;2023-02-11T11:26:53;103666.41;;;10.98;65.47
64336;BME280;50672;53.362;-6.240;2023-02-11T11:32:02;103665.31;;;11.00;64.74
64336;BME280;50672;53.362;-6.240;2023-02-11T11:34:36;103665.09;;;11.03;64.46
64336;BME280;50672;53.362;-6.240;2023-02-11T11:37:26;103657.72;;;11.05;64.47
64336;BME280;50672;53.362;-6.240;2023-02-11T11:40:02;103653.47;;;11.14;64.28
64336;BME280;50672;53.362;-6.240;2023-02-11T11:42:35;103656.53;;;11.22;63.82
64336;BME280;50672;53.362;-6.240;2023-02-11T11:45:21;103646.91;;;11.29;63.65
64336;BME280;50672;53.362;-6.240;2023-02-11T11:50:56;103649.09;;;11.50;63.24
64336;BME280;50672;53.362;-6.240;2023-02-11T11:54:02;103653.56;;;11.64;62.87
64336;BME280;50672;53.362;-6.240;2023-02-11T11:56:31;103652.47;;;11.67;62.30
64336;BME280;50672;53.362;-6.240;2023-02-11T11:59:02;103648.75;;;11.68;62.04
64336;BME280;50672;53.362;-6.240;2023-02-11T12:01:39;103643.94;;;11.71;62.04
64336;BME280;50672;53.362;-6.240;2023-02-11T12:25:03;103616.94;;;12.29;59.34
64336;BME280;50672;53.362;-6.240;2023-02-11T12:43:40;103615.94;;;11.93;57.97
64336;BME280;50672;53.362;-6.240;2023-02-11T12:56:25;103627.00;;;11.79;58.03
64336;BME280;50672;53.362;-6.240;2023-02-11T12:58:56;103625.38;;;11.76;58.10
64336;BME280;50672;53.362;-6.240;2023-02-11T13:04:04;103618.22;;;11.62;57.48
64336;BME280;50672;53.362;-6.240;2023-02-11T13:06:39;103613.41;;;11.53;57.28
64336;BME280;50672;53.362;-6.240;2023-02-11T13:09:16;103612.97;;;11.46;57.22
64336;BME280;50672;53.362;-6.240;2023-02-11T13:11:48;103610.47;;;11.43;56.71
64336;BME280;50672;53.362;-6.240;2023-02-11T13:14:24;103608.84;;;11.41;56.82
64336;BME280;50672;53.362;-6.240;2023-02-11T13:16:54;103612.53;;;11.40;56.88
64336;BME280;50672;53.362;-6.240;2023-02-11T13:19:33;103621.72;;;11.39;56.63
64336;BME280;50672;53.362;-6.240;2023-02-11T13:23:17;103618.13;;;11.38;56.30
64336;BME280;50672;53.362;-6.240;2023-02-11T13:25:37;103625.09;;;11.42;56.58
64336;BME280;50672;53.362;-6.240;2023-02-11T13:30:37;103625.44;;;11.38;56.12
64336;BME280;50672;53.362;-6.240;2023-02-11T13:38:36;103629.47;;;11.45;56.31
64336;BME280;50672;53.362;-6.240;2023-02-11T13:44:19;103629.03;;;11.51;56.11
64336;BME280;50672;53.362;-6.240;2023-02-11T13:46:59;103620.84;;;11.51;56.35
64336;BME280;50672;53.362;-6.240;2023-02-11T13:49:37;103621.47;;;11.55;56.23
64336;BME280;50672;53.362;-6.240;2023-02-11T13:52:31;103617.44;;;11.60;56.10
64336;BME280;50672;53.362;-6.240;2023-02-11T13:57:40;103602.44;;;11.79;55.57
64336;BME280;50672;53.362;-6.240;2023-02-11T14:09:31;103583.13;;;12.43;54.65
64336;BME280;50672;53.362;-6.240;2023-02-11T14:12:30;103577.00;;;12.40;54.60
64336;BME280;50672;53.362;-6.240;2023-02-11T14:15:18;103567.00;;;12.52;54.46
64336;BME280;50672;53.362;-6.240;2023-02-11T14:17:45;103567.38;;;12.58;54.25
64336;BME280;50672;53.362;-6.240;2023-02-11T14:20:40;103564.41;;;12.61;53.84
64336;BME280;50672;53.362;-6.240;2023-02-11T14:23:22;103563.06;;;12.67;53.77
64336;BME280;50672;53.362;-6.240;2023-02-11T14:26:00;103564.19;;;12.64;53.87
64336;BME280;50672;53.362;-6.240;2023-02-11T14:28:29;103556.31;;;12.60;53.82
64336;BME280;50672;53.362;-6.240;2023-02-11T14:31:06;103558.44;;;12.56;53.62
64336;BME280;50672;53.362;-6.240;2023-02-11T14:41:45;103548.94;;;12.38;53.26
64336;BME280;50672;53.362;-6.240;2023-02-11T14:44:19;103546.53;;;12.33;53.56
64336;BME280;50672;53.362;-6.240;2023-02-11T14:46:49;103544.19;;;12.28;53.23
64336;BME280;50672;53.362;-6.240;2023-02-11T14:49:33;103550.09;;;12.22;53.33
64336;BME280;50672;53.362;-6.240;2023-02-11T14:52:31;103549.72;;;12.16;53.28
64336;BME280;50672;53.362;-6.240;2023-02-11T14:55:27;103552.16;;;12.07;53.10
64336;BME280;50672;53.362;-6.240;2023-02-11T14:58:16;103547.25;;;12.00;53.23
64336;BME280;50672;53.362;-6.240;2023-02-11T15:03:41;103554.81;;;11.83;53.56
64336;BME280;50672;53.362;-6.240;2023-02-11T15:06:17;103554.44;;;11.76;53.26
64336;BME280;50672;53.362;-6.240;2023-02-11T15:09:12;103559.59;;;11.68;53.70
64336;BME280;50672;53.362;-6.240;2023-02-11T15:11:42;103555.34;;;11.64;53.79
64336;BME280;50672;53.362;-6.240;2023-02-11T15:14:22;103553.81;;;11.60;53.59
64336;BME280;50672;53.362;-6.240;2023-02-11T15:16:52;103557.75;;;11.56;53.96
64336;BME280;50672;53.362;-6.240;2023-02-11T15:19:34;103554.50;;;11.51;54.16
64336;BME280;50672;53.362;-6.240;2023-02-11T15:22:05;103555.47;;;11.50;54.19
64336;BME280;50672;53.362;-6.240;2023-02-11T15:24:33;103554.72;;;11.48;54.51
64336;BME280;50672;53.362;-6.240;2023-02-11T15:27:11;103549.38;;;11.46;54.71
64336;BME280;50672;53.362;-6.240;2023-02-11T15:29:45;103556.91;;;11.42;54.71
64336;BME280;50672;53.362;-6.240;2023-02-11T15:32:16;103563.69;;;11.37;54.60
64336;BME280;50672;53.362;-6.240;2023-02-11T15:34:45;103561.19;;;11.34;54.38
64336;BME280;50672;53.362;-6.240;2023-02-11T15:37:23;103564.88;;;11.33;54.71
64336;BME280;50672;53.362;-6.240;2023-02-11T15:39:52;103562.28;;;11.31;55.29